createdAt,value
2022-11-20T00:01:55.577Z,12.30
2022-11-20T00:04:25.038Z,13.60
2022-11-20T00:06:54.563Z,12.23
2022-11-20T00:09:26.660Z,10.83
2022-11-20T00:11:56.172Z,13.40
2022-11-20T00:14:25.604Z,15.17
2022-11-20T00:16:55.074Z,12.50
2022-11-20T00:19:24.523Z,10.83
2022-11-20T00:21:56.451Z,13.97
2022-11-20T00:24:28.578Z,11.37
2022-11-20T00:26:58.137Z,10.83
2022-11-20T00:29:27.549Z,12.07
2022-11-20T00:31:57.015Z,9.57
2022-11-20T00:34:26.490Z,13.47
2022-11-20T00:36:55.997Z,10.50
2022-11-20T00:39:28.118Z,10.80
2022-11-20T00:41:57.638Z,9.53
2022-11-20T00:44:27.077Z,11.87
2022-11-20T00:46:56.588Z,9.47
2022-11-20T00:49:25.993Z,10.17
2022-11-20T00:51:55.570Z,11.40
2022-11-20T00:54:25.158Z,10.40
2022-11-20T00:56:59.032Z,11.27
2022-11-20T00:59:28.619Z,8.90
2022-11-20T01:01:58.098Z,11.57
2022-11-20T01:04:27.632Z,9.40
2022-11-20T01:06:57.200Z,11.40
2022-11-20T01:09:26.795Z,11.07
2022-11-20T01:12:00.188Z,10.53
2022-11-20T01:14:29.979Z,10.13
2022-11-20T01:16:59.442Z,11.20
2022-11-20T01:19:28.925Z,9.47
2022-11-20T01:21:58.706Z,11.53
2022-11-20T01:24:28.212Z,11.97
2022-11-20T01:27:00.471Z,9.07
2022-11-20T01:29:29.977Z,10.57
2022-11-20T01:31:59.449Z,10.80
2022-11-20T01:34:29.016Z,10.93
2022-11-20T01:36:58.563Z,8.60
2022-11-20T01:39:29.020Z,10.70
2022-11-20T01:42:13.541Z,12.90
2022-11-20T01:45:00.685Z,10.13
2022-11-20T01:47:35.579Z,11.37
2022-11-20T01:50:07.748Z,9.03
2022-11-20T01:52:38.928Z,10.80
2022-11-20T01:55:10.927Z,9.40
2022-11-20T01:57:43.789Z,10.73
2022-11-20T02:00:15.004Z,11.27
2022-11-20T02:02:45.482Z,10.07
2022-11-20T02:05:18.410Z,11.23
2022-11-20T02:07:48.306Z,10.90
2022-11-20T02:10:18.229Z,11.17
2022-11-20T02:13:02.697Z,10.57
2022-11-20T02:15:32.246Z,10.20
2022-11-20T02:18:01.810Z,10.93
2022-11-20T02:20:31.411Z,13.03
2022-11-20T02:23:02.789Z,9.33
2022-11-20T02:25:36.753Z,9.83
2022-11-20T02:28:06.710Z,11.77
2022-11-20T02:30:36.208Z,12.43
2022-11-20T02:33:05.729Z,9.93
2022-11-20T02:35:46.422Z,11.10
2022-11-20T02:38:16.790Z,9.60
2022-11-20T02:40:54.137Z,10.17
2022-11-20T02:43:24.916Z,11.83
2022-11-20T02:45:54.390Z,10.63
2022-11-20T02:48:25.311Z,10.97
2022-11-20T02:50:54.893Z,9.90
2022-11-20T02:53:24.350Z,10.73
2022-11-20T02:55:56.573Z,12.60
2022-11-20T02:58:26.148Z,10.93
2022-11-20T03:00:56.172Z,9.83
2022-11-20T03:03:26.432Z,9.37
2022-11-20T03:05:55.926Z,8.87
2022-11-20T03:08:25.323Z,8.40
2022-11-20T03:10:57.458Z,10.97
2022-11-20T03:13:28.551Z,11.70
2022-11-20T03:15:58.009Z,10.07
2022-11-20T03:18:27.533Z,12.07
2022-11-20T03:21:00.706Z,11.67
2022-11-20T03:23:32.335Z,8.93
2022-11-20T03:26:14.014Z,12.47
2022-11-20T03:28:43.522Z,8.77
2022-11-20T03:31:14.085Z,11.27
2022-11-20T03:33:44.070Z,9.83
2022-11-20T03:36:14.915Z,13.10
2022-11-20T03:38:44.820Z,11.43
2022-11-20T03:41:18.330Z,9.83
2022-11-20T03:43:50.764Z,11.70
2022-11-20T03:46:20.319Z,11.77
2022-11-20T03:48:51.966Z,10.27
2022-11-20T03:51:22.933Z,10.83
2022-11-20T03:53:53.614Z,12.03
2022-11-20T03:56:26.924Z,11.13
2022-11-20T03:58:56.442Z,11.53
2022-11-20T04:01:26.921Z,10.80
2022-11-20T04:03:56.993Z,12.97
2022-11-20T04:06:27.171Z,10.23
2022-11-20T04:08:57.906Z,11.00
2022-11-20T04:11:31.055Z,12.87
2022-11-20T04:14:01.328Z,14.27
2022-11-20T04:16:32.947Z,13.30
2022-11-20T04:19:03.317Z,12.20
2022-11-20T04:21:33.231Z,12.17
2022-11-20T04:24:02.790Z,11.80
2022-11-20T04:26:35.392Z,12.30
2022-11-20T04:29:05.465Z,9.97
2022-11-20T04:31:35.880Z,11.97
2022-11-20T04:34:05.934Z,12.10
2022-11-20T04:36:35.966Z,10.13
2022-11-20T04:39:06.808Z,12.90
2022-11-20T04:41:39.816Z,13.90
2022-11-20T04:44:09.557Z,11.53
2022-11-20T04:46:39.824Z,10.40
2022-11-20T04:49:09.624Z,12.37
2022-11-20T04:51:39.092Z,12.07
2022-11-20T04:54:09.076Z,11.43
2022-11-20T04:56:41.092Z,12.63
2022-11-20T04:59:10.632Z,15.40
2022-11-20T05:01:40.330Z,13.03
2022-11-20T05:04:09.905Z,10.87
2022-11-20T05:06:39.352Z,10.60
2022-11-20T05:09:08.817Z,11.70
2022-11-20T05:11:40.969Z,13.30
2022-11-20T05:14:10.552Z,10.90
2022-11-20T05:16:40.354Z,12.17
2022-11-20T05:19:09.832Z,12.07
2022-11-20T05:21:39.315Z,11.97
2022-11-20T05:24:09.231Z,13.70
2022-11-20T05:26:41.298Z,12.50
2022-11-20T05:29:10.861Z,13.73
2022-11-20T05:31:40.301Z,11.67
2022-11-20T05:34:09.951Z,11.10
2022-11-20T05:36:39.453Z,12.50
2022-11-20T05:39:09.060Z,13.90
2022-11-20T05:41:41.146Z,13.40
2022-11-20T05:44:10.627Z,11.97
2022-11-20T05:46:40.312Z,14.77
2022-11-20T05:49:09.845Z,16.57
2022-11-20T05:51:39.290Z,12.87
2022-11-20T05:54:08.880Z,15.10
2022-11-20T05:56:40.935Z,12.13
2022-11-20T05:59:10.578Z,14.63
2022-11-20T06:01:40.081Z,13.97
2022-11-20T06:04:09.589Z,14.13
2022-11-20T06:06:39.059Z,13.93
2022-11-20T06:09:08.542Z,14.23
2022-11-20T06:11:37.986Z,16.60
2022-11-20T06:14:10.289Z,14.33
2022-11-20T06:16:40.010Z,10.63
2022-11-20T06:19:09.432Z,14.27
2022-11-20T06:21:38.964Z,11.53
2022-11-20T06:24:12.733Z,13.47
2022-11-20T06:26:42.268Z,13.53
2022-11-20T06:29:14.460Z,13.17
2022-11-20T06:31:43.942Z,11.60
2022-11-20T06:34:13.367Z,14.67
2022-11-20T06:36:42.869Z,13.70
2022-11-20T06:39:12.326Z,11.57
2022-11-20T06:41:41.878Z,12.40
2022-11-20T06:44:14.052Z,12.30
2022-11-20T06:46:43.518Z,11.80
2022-11-20T06:49:12.963Z,14.17
2022-11-20T06:51:42.576Z,14.27
2022-11-20T06:54:11.980Z,14.73
2022-11-20T06:56:41.544Z,13.67
2022-11-20T06:59:11.039Z,14.93
2022-11-20T07:01:43.152Z,15.67
2022-11-20T07:04:12.702Z,15.80
2022-11-20T07:06:42.128Z,13.30
2022-11-20T07:09:13.007Z,16.93
2022-11-20T07:11:42.616Z,12.47
2022-11-20T07:14:12.034Z,15.77
2022-11-20T07:16:44.163Z,11.90
2022-11-20T07:19:13.724Z,13.87
2022-11-20T07:21:43.208Z,16.97
2022-11-20T07:24:12.747Z,17.30
2022-11-20T07:26:42.162Z,14.17
2022-11-20T07:29:11.699Z,12.87
2022-11-20T07:31:41.129Z,13.30
2022-11-20T07:34:13.219Z,12.57
2022-11-20T07:36:43.241Z,10.90
2022-11-20T07:39:12.705Z,13.23
2022-11-20T07:41:42.402Z,13.97
2022-11-20T07:44:11.898Z,15.40
2022-11-20T07:46:41.442Z,14.67
2022-11-20T07:49:13.559Z,13.73
2022-11-20T07:51:43.063Z,12.10
2022-11-20T07:54:12.556Z,12.90
2022-11-20T07:56:42.058Z,9.53
2022-11-20T07:59:12.851Z,10.37
2022-11-20T08:01:42.494Z,13.80
2022-11-20T08:04:17.165Z,13.80
2022-11-20T08:06:46.784Z,12.23
2022-11-20T08:09:16.253Z,13.70
2022-11-20T08:11:58.197Z,12.63
2022-11-20T08:14:28.745Z,12.83
2022-11-20T08:16:58.177Z,12.63
2022-11-20T08:19:30.577Z,11.30
2022-11-20T08:22:00.081Z,13.53
2022-11-20T08:24:29.551Z,14.70
2022-11-20T08:27:01.129Z,15.23
2022-11-20T08:29:31.041Z,12.23
2022-11-20T08:32:00.474Z,15.70
2022-11-20T08:34:32.575Z,15.93
2022-11-20T08:37:02.144Z,14.93
2022-11-20T08:39:31.577Z,14.53
2022-11-20T08:42:01.027Z,17.97
2022-11-20T08:44:30.605Z,23.50
2022-11-20T08:47:00.183Z,16.80
2022-11-20T08:49:32.239Z,15.40
2022-11-20T08:52:01.748Z,18.50
2022-11-20T08:54:31.176Z,14.10
2022-11-20T08:57:00.698Z,13.40
2022-11-20T09:00:03.811Z,15.13
2022-11-20T09:02:20.558Z,13.33
2022-11-20T09:04:52.580Z,11.93
2022-11-20T09:07:22.194Z,14.40
2022-11-20T09:10:16.493Z,14.97
2022-11-20T09:12:41.238Z,11.73
2022-11-20T09:15:12.307Z,12.70
2022-11-20T09:17:41.839Z,14.53
2022-11-20T09:20:14.363Z,12.50
2022-11-20T09:22:43.902Z,12.03
2022-11-20T09:25:13.356Z,13.60
2022-11-20T09:27:44.756Z,14.27
2022-11-20T09:30:14.894Z,12.90
2022-11-20T09:32:44.538Z,12.63
2022-11-20T09:35:16.622Z,13.60
2022-11-20T09:37:46.286Z,12.80
2022-11-20T09:40:22.950Z,11.67
2022-11-20T09:42:56.406Z,13.47
2022-11-20T09:45:28.469Z,12.53
2022-11-20T09:48:07.743Z,14.33
2022-11-20T09:50:41.333Z,15.17
2022-11-20T09:53:16.247Z,11.10
2022-11-20T09:55:46.188Z,10.67
2022-11-20T09:58:19.748Z,11.27
2022-11-20T10:00:50.630Z,14.13
2022-11-20T10:03:23.202Z,11.47
2022-11-20T10:05:56.932Z,15.93
2022-11-20T10:08:30.375Z,14.07
2022-11-20T10:11:02.778Z,14.67
2022-11-20T10:13:38.335Z,20.00
2022-11-20T10:16:15.345Z,16.90
2022-11-20T10:18:50.686Z,14.33
2022-11-20T10:21:27.583Z,16.63
2022-11-20T10:24:12.080Z,17.80
2022-11-20T10:26:45.939Z,15.80
2022-11-20T10:29:16.531Z,15.83
2022-11-20T10:31:47.571Z,18.37
2022-11-20T10:34:23.167Z,17.43
2022-11-20T10:36:58.492Z,16.23
2022-11-20T10:39:33.864Z,15.90
2022-11-20T10:42:03.423Z,16.60
2022-11-20T10:44:46.082Z,14.07
2022-11-20T10:47:17.193Z,11.57
2022-11-20T10:49:47.737Z,9.30
2022-11-20T10:52:22.423Z,11.37
2022-11-20T10:54:55.156Z,11.07
2022-11-20T10:57:33.135Z,12.43
2022-11-20T11:00:07.420Z,13.30
2022-11-20T11:02:38.848Z,14.87
2022-11-20T11:05:15.684Z,13.07
2022-11-20T11:07:48.116Z,13.40
2022-11-20T11:10:19.286Z,10.90
2022-11-20T11:12:49.486Z,12.73
2022-11-20T11:15:29.229Z,10.50
2022-11-20T11:17:58.959Z,20.00
2022-11-20T11:20:28.987Z,11.83
2022-11-20T11:23:01.664Z,11.30
2022-11-20T11:25:34.820Z,10.43
2022-11-20T11:28:05.306Z,21.87
2022-11-20T11:30:45.756Z,12.77
2022-11-20T11:33:15.925Z,16.10
2022-11-20T11:35:51.427Z,17.33
2022-11-20T11:38:26.073Z,15.10
2022-11-20T11:40:57.466Z,13.23
2022-11-20T11:43:41.993Z,11.23
2022-11-20T11:46:18.775Z,13.33
2022-11-20T11:48:58.064Z,12.77
2022-11-20T11:51:30.217Z,13.55
2022-11-20T11:54:03.369Z,16.08
2022-11-20T11:56:33.495Z,13.90
2022-11-20T11:59:05.554Z,13.27
2022-11-20T12:01:39.469Z,13.40
2022-11-20T12:04:15.022Z,11.02
2022-11-20T12:06:47.001Z,13.32
2022-11-20T12:09:20.216Z,14.00
2022-11-20T12:11:53.785Z,14.35
2022-11-20T12:14:27.407Z,14.75
2022-11-20T12:16:58.687Z,15.98
2022-11-20T12:19:29.543Z,13.48
2022-11-20T12:22:05.227Z,14.67
2022-11-20T12:24:46.496Z,25.45
2022-11-20T12:27:33.509Z,12.25
2022-11-20T12:30:05.165Z,9.15
2022-11-20T12:32:43.924Z,6.97
2022-11-20T12:35:21.003Z,5.53
2022-11-20T12:37:56.740Z,5.70
2022-11-20T12:40:32.467Z,5.03
2022-11-20T12:43:17.902Z,7.00
2022-11-20T12:45:58.106Z,8.30
2022-11-20T12:48:44.932Z,6.70
2022-11-20T12:51:32.516Z,5.83
2022-11-20T12:54:07.875Z,7.83
2022-11-20T12:56:44.345Z,5.60
2022-11-20T12:59:26.228Z,7.50
2022-11-20T13:01:59.427Z,7.00
2022-11-20T13:04:52.691Z,6.97
2022-11-20T13:07:23.712Z,6.97
2022-11-20T13:09:54.447Z,7.07
2022-11-20T13:12:28.257Z,7.10
2022-11-20T13:15:02.030Z,9.03
2022-11-20T13:17:35.721Z,8.73
2022-11-20T13:20:06.132Z,8.27
2022-11-20T13:22:46.561Z,9.63
2022-11-20T13:25:25.941Z,7.63
2022-11-20T13:27:58.557Z,8.67
2022-11-20T13:30:28.676Z,7.60
2022-11-20T13:33:00.882Z,8.10
2022-11-20T13:35:32.298Z,10.17
2022-11-20T13:38:06.399Z,7.67
2022-11-20T13:40:36.230Z,8.70
2022-11-20T13:43:14.855Z,10.40
2022-11-20T13:45:44.349Z,10.77
2022-11-20T13:48:23.795Z,9.87
2022-11-20T13:50:58.706Z,8.47
2022-11-20T13:53:34.677Z,7.40
2022-11-20T13:56:09.148Z,8.23
2022-11-20T13:58:49.947Z,8.43
2022-11-20T14:01:20.897Z,8.20
2022-11-20T14:04:05.510Z,7.23
2022-11-20T14:06:37.401Z,8.23
2022-11-20T14:09:07.074Z,9.27
2022-11-20T14:11:36.527Z,8.63
2022-11-20T14:14:16.882Z,8.95
2022-11-20T14:16:46.762Z,9.77
2022-11-20T14:19:32.477Z,12.77
2022-11-20T14:22:12.843Z,15.47
2022-11-20T14:24:42.365Z,14.90
2022-11-20T14:27:16.234Z,13.23
2022-11-20T14:29:48.777Z,13.87
2022-11-20T14:32:19.237Z,10.63
2022-11-20T14:34:49.677Z,14.13
2022-11-20T14:37:22.250Z,9.57
2022-11-20T14:39:53.074Z,12.20
2022-11-20T14:42:23.711Z,9.70
2022-11-20T14:44:58.887Z,12.03
2022-11-20T14:47:29.601Z,10.75
2022-11-20T14:49:59.453Z,9.57
2022-11-20T14:52:32.048Z,10.90
2022-11-20T14:55:02.779Z,10.70
2022-11-20T14:57:32.936Z,8.93
2022-11-20T15:00:23.040Z,11.50
2022-11-20T15:02:53.701Z,11.33
2022-11-20T15:05:24.573Z,11.63
2022-11-20T15:07:55.190Z,14.73
2022-11-20T15:10:26.362Z,11.47
2022-11-20T15:12:57.920Z,8.57
2022-11-20T15:15:33.134Z,12.97
2022-11-20T15:18:03.077Z,9.13
2022-11-20T15:20:35.724Z,10.57
2022-11-20T15:23:05.402Z,9.37
2022-11-20T15:25:34.848Z,9.60
2022-11-20T15:28:04.336Z,8.90
2022-11-20T15:30:36.491Z,8.10
2022-11-20T15:33:06.222Z,7.90
2022-11-20T15:35:35.693Z,8.87
2022-11-20T15:38:05.308Z,8.77
2022-11-20T15:40:34.943Z,9.40
2022-11-20T15:43:13.018Z,11.37
2022-11-20T15:45:47.125Z,12.83
2022-11-20T15:48:18.653Z,8.40
2022-11-20T15:50:52.520Z,8.30
2022-11-20T15:53:22.105Z,11.10
2022-11-20T15:55:51.877Z,9.00
2022-11-20T15:58:21.464Z,10.63
2022-11-20T16:00:53.644Z,11.80
2022-11-20T16:03:23.269Z,11.30
2022-11-20T16:05:52.762Z,8.32
2022-11-20T16:08:22.352Z,9.33
2022-11-20T16:10:51.819Z,8.87
2022-11-20T16:13:33.933Z,10.60
2022-11-20T16:16:10.194Z,9.57
2022-11-20T16:18:39.723Z,13.37
2022-11-20T16:21:14.929Z,10.13
2022-11-20T16:23:44.746Z,8.37
2022-11-20T16:26:14.929Z,12.50
2022-11-20T16:28:44.645Z,11.63
2022-11-20T16:31:18.022Z,9.60
2022-11-20T16:33:52.371Z,8.03
2022-11-20T16:36:22.539Z,10.40
2022-11-20T16:38:55.444Z,16.80
2022-11-20T16:41:26.727Z,12.07
2022-11-20T16:43:58.095Z,18.37
2022-11-20T16:46:31.056Z,13.23
2022-11-20T16:49:01.466Z,11.60
2022-11-20T16:51:32.123Z,11.83
2022-11-20T16:54:04.548Z,11.07
2022-11-20T16:56:34.206Z,9.63
2022-11-20T16:59:04.230Z,11.00
2022-11-20T17:01:40.105Z,14.07
2022-11-20T17:04:10.195Z,13.65
2022-11-20T17:06:41.056Z,12.20
2022-11-20T17:09:11.342Z,18.50
2022-11-20T17:11:40.845Z,16.40
2022-11-20T17:14:10.400Z,13.13
2022-11-20T17:16:43.105Z,14.37
2022-11-20T17:19:12.593Z,11.35
2022-11-20T17:21:42.360Z,10.33
2022-11-20T17:24:13.671Z,9.47
2022-11-20T17:26:44.044Z,10.38
2022-11-20T17:29:14.268Z,9.80
2022-11-20T17:31:46.732Z,10.47
2022-11-20T17:34:16.980Z,10.35
2022-11-20T17:36:46.966Z,14.47
2022-11-20T17:39:16.739Z,10.93
2022-11-20T17:42:06.591Z,10.77
2022-11-20T17:44:36.386Z,9.53
2022-11-20T17:47:08.534Z,9.30
2022-11-20T17:49:38.115Z,9.23
2022-11-20T17:52:07.898Z,8.97
2022-11-20T17:54:37.475Z,9.03
2022-11-20T17:57:19.333Z,17.53
2022-11-20T17:59:48.908Z,12.80
2022-11-20T18:02:20.959Z,9.47
2022-11-20T18:04:50.477Z,13.30
2022-11-20T18:07:20.058Z,19.23
2022-11-20T18:09:50.363Z,16.47
2022-11-20T18:12:19.826Z,11.47
2022-11-20T18:14:49.920Z,13.90
2022-11-20T18:17:22.029Z,20.13
2022-11-20T18:20:14.355Z,22.47
2022-11-20T18:22:41.247Z,13.50
2022-11-20T18:25:11.248Z,10.63
2022-11-20T18:27:41.114Z,11.70
2022-11-20T18:30:11.358Z,9.57
2022-11-20T18:32:43.612Z,9.17
2022-11-20T18:35:13.162Z,10.33
2022-11-20T18:37:42.580Z,10.03
2022-11-20T18:40:13.145Z,7.90
2022-11-20T18:42:55.166Z,7.53
2022-11-20T18:45:24.759Z,9.77
2022-11-20T18:47:56.861Z,7.90
2022-11-20T18:50:26.398Z,9.03
2022-11-20T18:52:55.864Z,12.60
2022-11-20T18:55:26.255Z,11.90
2022-11-20T18:57:55.783Z,9.63
2022-11-20T19:00:25.321Z,7.80
2022-11-20T19:02:58.195Z,13.10
2022-11-20T19:05:27.886Z,9.00
2022-11-20T19:07:57.338Z,8.40
2022-11-20T19:10:27.488Z,8.35
2022-11-20T19:12:58.569Z,7.30
2022-11-20T19:15:28.041Z,9.33
2022-11-20T19:18:01.353Z,7.43
2022-11-20T19:20:31.950Z,8.23
2022-11-20T19:23:01.442Z,7.77
2022-11-20T19:25:35.172Z,10.37
2022-11-20T19:28:07.911Z,8.03
2022-11-20T19:30:37.426Z,8.40
2022-11-20T19:33:09.536Z,8.07
2022-11-20T19:35:39.341Z,10.10
2022-11-20T19:38:08.886Z,12.23
2022-11-20T19:40:38.558Z,7.97
2022-11-20T19:43:08.011Z,7.40
2022-11-20T19:45:37.473Z,9.65
2022-11-20T19:48:09.695Z,8.38
2022-11-20T19:50:39.247Z,7.38
2022-11-20T19:53:08.667Z,10.63
2022-11-20T19:55:38.235Z,9.65
2022-11-20T19:58:07.859Z,8.82
2022-11-20T20:00:37.305Z,9.73
2022-11-20T20:03:09.402Z,7.05
2022-11-20T20:05:38.966Z,10.07
2022-11-20T20:08:08.502Z,8.23
2022-11-20T20:10:38.061Z,7.95
2022-11-20T20:13:07.681Z,12.03
2022-11-20T20:15:37.551Z,8.87
2022-11-20T20:18:09.712Z,11.57
2022-11-20T20:20:39.312Z,8.48
2022-11-20T20:23:09.195Z,14.55
2022-11-20T20:25:39.724Z,11.25
2022-11-20T20:28:09.194Z,10.63
2022-11-20T20:30:38.871Z,9.27
2022-11-20T20:33:10.987Z,8.07
2022-11-20T20:35:42.910Z,6.47
2022-11-20T20:38:12.463Z,6.47
2022-11-20T20:40:41.911Z,7.77
2022-11-20T20:43:11.395Z,7.22
2022-11-20T20:45:47.354Z,6.90
2022-11-20T20:48:20.137Z,7.07
2022-11-20T20:50:56.083Z,7.20
2022-11-20T20:53:25.653Z,7.97
2022-11-20T20:55:58.387Z,5.33
2022-11-20T20:58:28.441Z,9.02
2022-11-20T21:00:58.428Z,6.38
2022-11-20T21:03:32.979Z,7.10
2022-11-20T21:06:03.317Z,6.53
2022-11-20T21:08:32.922Z,6.32
2022-11-20T21:11:04.271Z,5.20
2022-11-20T21:13:34.054Z,7.68
2022-11-20T21:16:03.560Z,6.18
2022-11-20T21:18:36.087Z,5.80
2022-11-20T21:21:19.566Z,6.50
2022-11-20T21:23:49.441Z,6.18
2022-11-20T21:26:18.947Z,5.95
2022-11-20T21:28:48.633Z,6.27
2022-11-20T21:31:18.906Z,5.03
2022-11-20T21:33:52.377Z,4.43
2022-11-20T21:36:22.817Z,4.90
2022-11-20T21:38:54.022Z,4.93
2022-11-20T21:41:23.747Z,4.57
2022-11-20T21:46:44.029Z,4.53
2022-11-20T21:49:18.340Z,5.05
2022-11-20T21:51:47.878Z,5.80
2022-11-20T21:54:17.629Z,6.03
2022-11-20T21:56:47.178Z,4.35
2022-11-20T21:59:16.796Z,4.18
2022-11-20T22:01:46.443Z,3.45
2022-11-20T22:04:18.659Z,3.67
2022-11-20T22:06:48.845Z,3.60
2022-11-20T22:09:18.334Z,3.13
2022-11-20T22:11:47.757Z,5.27
2022-11-20T22:14:20.796Z,3.65
2022-11-20T22:16:51.104Z,4.00
2022-11-20T22:19:23.829Z,2.80
2022-11-20T22:21:53.685Z,5.00
2022-11-20T22:24:24.447Z,2.70
2022-11-20T22:26:54.192Z,2.57
2022-11-20T22:29:24.303Z,2.80
2022-11-20T22:31:54.791Z,2.53
2022-11-20T22:34:27.123Z,2.80
2022-11-20T22:36:56.778Z,2.23
2022-11-20T22:39:26.215Z,7.97
2022-11-20T22:41:55.684Z,3.13
2022-11-20T22:44:25.468Z,2.38
2022-11-20T22:46:55.319Z,2.38
2022-11-20T22:49:27.512Z,2.97
2022-11-20T22:51:57.126Z,2.50
2022-11-20T22:54:26.687Z,3.03
2022-11-20T22:56:56.348Z,2.75
2022-11-20T22:59:25.918Z,2.33
2022-11-20T23:01:55.464Z,2.07
2022-11-20T23:04:27.719Z,3.03
2022-11-20T23:06:57.376Z,2.47
2022-11-20T23:09:26.946Z,1.97
2022-11-20T23:11:56.544Z,2.20
2022-11-20T23:14:27.809Z,2.30
2022-11-20T23:16:57.867Z,1.85
2022-11-20T23:19:29.951Z,1.93
2022-11-20T23:21:59.534Z,1.47
2022-11-20T23:24:29.301Z,1.50
2022-11-20T23:26:58.992Z,1.98
2022-11-20T23:29:28.580Z,1.95
2022-11-20T23:31:58.214Z,1.75
2022-11-20T23:34:30.380Z,1.63
2022-11-20T23:37:01.201Z,1.70
2022-11-20T23:39:30.915Z,1.90
2022-11-20T23:42:00.430Z,1.17
2022-11-20T23:44:30.358Z,1.67
2022-11-20T23:46:59.929Z,1.70
2022-11-20T23:49:32.124Z,1.73
2022-11-20T23:52:01.729Z,1.63
2022-11-20T23:54:31.196Z,1.17
2022-11-20T23:57:00.810Z,1.70
2022-11-20T23:59:30.429Z,1.90
